Time;durP1;ratioP1;P1;durP2;ratioP2;P2;SDS_P1;SDS_P2;PMS_P1;PMS_P2;Temp;Humidity;BMP_temperature;BMP_pressure;BME280_temperature;BME280_humidity;BME280_pressure;Samples;Min_cycle;Max_cycle;Signal;HPM_P1;HPM_P2
2021/03/21 00:01:38;;;;;;;4.70;3.93;;;5.60;73.00;;;;;;5074520;28;20396;-65
2021/03/21 00:04:04;;;;;;;4.97;4.50;;;5.40;70.60;;;;;;5074543;28;20451;-65
2021/03/21 00:06:30;;;;;;;5.00;4.43;;;5.40;71.80;;;;;;5074294;28;20528;-65
2021/03/21 00:08:56;;;;;;;7.53;4.97;;;5.50;70.70;;;;;;5074787;28;20404;-65
2021/03/21 00:11:22;;;;;;;3.80;3.50;;;5.40;72.10;;;;;;5088524;28;20415;-65
2021/03/21 00:13:48;;;;;;;4.10;3.70;;;5.40;71.50;;;;;;5078336;28;20441;-65
2021/03/21 00:16:14;;;;;;;5.20;4.23;;;5.50;71.70;;;;;;5074694;28;20439;-66
2021/03/21 00:18:41;;;;;;;6.00;4.57;;;5.60;72.30;;;;;;5073801;28;20498;-65
2021/03/21 00:21:10;;;;;;;5.00;4.50;;;5.60;71.10;;;;;;5074646;28;20414;-65
2021/03/21 00:23:36;;;;;;;5.53;3.97;;;5.70;70.40;;;;;;5073857;28;20448;-66
2021/03/21 00:26:02;;;;;;;4.33;3.63;;;5.70;71.70;;;;;;5074192;28;20433;-66
2021/03/21 00:28:31;;;;;;;4.70;4.30;;;5.80;71.40;;;;;;5067648;28;20424;-65
2021/03/21 00:30:58;;;;;;;4.17;3.40;;;5.90;72.40;;;;;;5074003;28;20416;-65
2021/03/21 00:33:26;;;;;;;4.87;4.37;;;5.80;70.10;;;;;;5074235;28;20470;-65
2021/03/21 00:35:53;;;;;;;7.23;4.30;;;5.70;71.20;;;;;;5073996;28;20467;-64
2021/03/21 00:38:31;;;;;;;5.23;4.37;;;5.70;71.70;;;;;;5057291;28;20447;-65
2021/03/21 00:40:57;;;;;;;5.03;4.53;;;5.60;71.90;;;;;;5080057;28;20446;-65
2021/03/21 00:43:24;;;;;;;5.20;3.83;;;5.60;71.50;;;;;;5093959;28;20451;-65
2021/03/21 00:45:51;;;;;;;4.87;4.13;;;5.70;71.20;;;;;;5093954;28;20469;-65
2021/03/21 00:48:24;;;;;;;4.40;4.00;;;5.30;69.20;;;;;;5077112;28;20515;-65
2021/03/21 00:50:50;;;;;;;6.57;4.57;;;5.40;69.60;;;;;;5073818;28;20486;-65
2021/03/21 00:53:16;;;;;;;4.77;4.27;;;5.50;69.50;;;;;;5073511;28;20416;-64
2021/03/21 00:55:42;;;;;;;4.30;3.90;;;5.60;69.80;;;;;;5073189;28;20427;-65
2021/03/21 00:58:08;;;;;;;4.63;4.10;;;5.60;71.00;;;;;;5073884;28;20178;-64
2021/03/21 01:01:01;;;;;;;5.90;4.43;;;5.50;70.00;;;;;;5073533;28;20595;-65
2021/03/21 01:03:27;;;;;;;5.43;4.80;;;5.50;71.00;;;;;;5072778;28;20456;-64
2021/03/21 01:05:59;;;;;;;4.53;4.10;;;5.40;71.80;;;;;;5073353;28;20435;-65
2021/03/21 01:08:29;;;;;;;5.90;4.73;;;5.30;70.00;;;;;;5067335;28;20216;-64
2021/03/21 01:11:06;;;;;;;4.67;4.00;;;5.40;72.80;;;;;;5083661;28;20411;-65
2021/03/21 01:13:32;;;;;;;5.80;4.30;;;5.60;72.30;;;;;;5085259;28;20404;-65
2021/03/21 01:15:59;;;;;;;5.63;4.90;;;5.70;70.70;;;;;;5074207;28;20515;-65
2021/03/21 01:18:28;;;;;;;4.20;3.80;;;5.80;72.50;;;;;;5072886;28;20427;-65
2021/03/21 01:20:54;;;;;;;4.57;4.17;;;5.80;71.30;;;;;;5073350;28;20404;-65
2021/03/21 01:23:20;;;;;;;5.47;4.47;;;5.70;72.00;;;;;;5073487;28;20551;-65
2021/03/21 01:25:46;;;;;;;5.50;5.00;;;5.70;69.60;;;;;;5064312;28;20199;-65
2021/03/21 01:28:20;;;;;;;6.70;4.33;;;5.80;70.30;;;;;;5053260;28;20454;-65
2021/03/21 01:30:45;;;;;;;4.20;3.80;;;5.70;70.10;;;;;;5053225;28;20599;-65
2021/03/21 01:33:11;;;;;;;4.83;4.30;;;5.70;72.20;;;;;;5053379;28;20441;-65
2021/03/21 01:35:37;;;;;;;5.37;3.80;;;5.70;71.50;;;;;;5053123;28;20539;-65
2021/03/21 01:38:02;;;;;;;4.57;4.00;;;5.80;72.00;;;;;;5066809;28;20265;-65
2021/03/21 01:40:28;;;;;;;4.63;4.20;;;5.50;69.40;;;;;;5079382;28;20181;-65
2021/03/21 01:42:54;;;;;;;5.13;4.40;;;5.30;70.00;;;;;;5093143;28;20242;-65
2021/03/21 01:45:33;;;;;;;4.63;4.20;;;5.40;70.30;;;;;;5093152;28;20177;-65
2021/03/21 01:48:06;;;;;;;6.37;4.23;;;5.40;71.30;;;;;;5073514;28;20176;-65
2021/03/21 01:50:43;;;;;;;5.80;4.37;;;5.50;70.90;;;;;;5072724;28;20404;-65
2021/03/21 01:53:10;;;;;;;4.90;4.40;;;5.40;71.90;;;;;;5072597;28;20491;-65
2021/03/21 01:55:36;;;;;;;5.40;4.10;;;5.50;71.90;;;;;;5072267;28;20905;-65
2021/03/21 01:58:02;;;;;;;4.30;3.90;;;5.60;71.10;;;;;;5071686;28;20424;-65
2021/03/21 02:00:28;;;;;;;5.10;3.57;;;5.40;71.20;;;;;;5071280;28;20420;-65
2021/03/21 02:02:54;;;;;;;7.43;4.70;;;5.50;71.70;;;;;;5060735;28;20264;-65
2021/03/21 02:05:20;;;;;;;8.47;4.90;;;5.50;72.20;;;;;;5068242;28;20401;-65
2021/03/21 02:08:00;;;;;;;5.00;4.13;;;5.60;71.50;;;;;;5078274;28;21092;-64
2021/03/21 02:11:02;;;;;;;4.00;3.40;;;5.50;72.40;;;;;;5097428;28;20779;-65
2021/03/21 02:13:50;;;;;;;5.13;4.20;;;5.60;71.60;;;;;;5086829;28;20514;-65
2021/03/21 02:16:27;;;;;;;5.17;4.67;;;5.60;73.10;;;;;;5097119;28;20427;-64
2021/03/21 02:19:17;;;;;;;5.83;4.13;;;5.60;72.10;;;;;;5056696;28;20393;-65
2021/03/21 02:21:59;;;;;;;4.87;4.37;;;5.60;72.00;;;;;;5035364;28;20508;-65
2021/03/21 02:24:36;;;;;;;4.83;4.10;;;5.60;72.80;;;;;;5056460;28;20445;-65
2021/03/21 02:27:12;;;;;;;5.00;4.50;;;5.50;71.20;;;;;;5073208;28;20501;-65
2021/03/21 02:29:55;;;;;;;6.20;4.13;;;5.60;72.20;;;;;;5076692;28;20686;-65
2021/03/21 02:32:29;;;;;;;5.63;4.50;;;5.60;71.80;;;;;;5078641;28;20912;-65
2021/03/21 02:35:18;;;;;;;5.70;3.77;;;5.60;72.30;;;;;;5076228;28;20964;-65
2021/03/21 02:38:11;;;;;;;4.87;4.37;;;5.60;70.30;;;;;;5064190;28;20425;-65
2021/03/21 02:40:51;;;;;;;5.90;4.27;;;5.60;71.10;;;;;;5072468;28;20422;-65
2021/03/21 02:43:19;;;;;;;5.03;4.30;;;5.60;71.30;;;;;;5092583;28;20539;-65
2021/03/21 02:45:50;;;;;;;5.50;4.10;;;5.70;70.30;;;;;;5075952;28;20435;-65
2021/03/21 02:48:29;;;;;;;5.13;4.40;;;5.60;71.20;;;;;;5075814;28;20469;-65
2021/03/21 02:51:08;;;;;;;4.90;4.40;;;5.40;69.60;;;;;;5076104;28;20395;-65
2021/03/21 02:53:37;;;;;;;4.50;4.10;;;5.40;69.10;;;;;;5075853;28;20388;-65
2021/03/21 02:56:04;;;;;;;4.40;4.00;;;5.40;69.60;;;;;;5075548;28;20811;-66
2021/03/21 02:58:36;;;;;;;4.20;3.60;;;5.30;70.00;;;;;;5068825;28;20416;-65
2021/03/21 03:01:19;;;;;;;4.70;4.27;;;5.30;70.90;;;;;;5076018;28;20416;-65
2021/03/21 03:03:50;;;;;;;5.13;4.47;;;5.20;70.80;;;;;;5076105;28;20517;-65
2021/03/21 03:06:24;;;;;;;4.60;4.17;;;4.80;69.80;;;;;;5075648;28;20948;-65
2021/03/21 03:08:54;;;;;;;5.27;4.00;;;4.90;70.90;;;;;;5075594;28;20412;-65
2021/03/21 03:11:46;;;;;;;4.03;3.70;;;5.10;72.40;;;;;;5078533;28;20954;-65
2021/03/21 03:14:16;;;;;;;3.93;3.63;;;5.20;71.60;;;;;;5089108;28;20893;-65
2021/03/21 03:16:55;;;;;;;4.60;3.90;;;5.30;71.60;;;;;;5074970;28;20432;-65
2021/03/21 03:19:31;;;;;;;4.33;3.93;;;5.50;72.70;;;;;;5075515;28;20483;-65
2021/03/21 03:22:17;;;;;;;4.50;3.90;;;5.30;70.10;;;;;;5076102;28;20736;-65
2021/03/21 03:25:07;;;;;;;5.97;4.40;;;5.30;71.50;;;;;;5075786;28;20458;-65
2021/03/21 03:27:54;;;;;;;4.00;3.60;;;5.30;71.20;;;;;;5074934;28;20431;-64
2021/03/21 03:30:24;;;;;;;4.97;4.50;;;5.30;72.40;;;;;;5075627;28;20393;-65
2021/03/21 03:32:49;;;;;;;3.97;3.60;;;5.20;71.70;;;;;;5075491;28;20409;-65
2021/03/21 03:35:18;;;;;;;6.40;4.30;;;5.40;72.10;;;;;;5109666;22;20547;-64
2021/03/21 03:37:44;;;;;;;4.20;3.63;;;5.40;71.40;;;;;;5087038;28;20169;-64
2021/03/21 03:40:11;;;;;;;6.00;4.70;;;5.40;72.50;;;;;;5095337;28;20411;-63
2021/03/21 03:42:58;;;;;;;6.33;4.77;;;5.50;73.50;;;;;;5095561;28;20387;-63
2021/03/21 03:45:51;;;;;;;4.83;3.73;;;5.30;71.00;;;;;;5095365;28;20498;-63
2021/03/21 03:49:10;;;;;;;5.17;4.17;;;5.30;72.90;;;;;;5094890;28;20432;-63
2021/03/21 03:52:07;;;;;;;5.33;4.07;;;5.30;73.50;;;;;;5016493;28;20402;-64
2021/03/21 03:54:50;;;;;;;4.93;4.00;;;5.30;72.80;;;;;;5095342;28;20494;-63
2021/03/21 03:57:30;;;;;;;4.80;3.77;;;5.20;71.90;;;;;;5075066;28;20377;-63
2021/03/21 04:00:17;;;;;;;5.20;4.70;;;5.30;72.90;;;;;;5075213;28;20534;-62
2021/03/21 04:03:11;;;;;;;6.30;4.80;;;5.30;72.40;;;;;;5075158;28;20389;-63
2021/03/21 04:05:49;;;;;;;4.57;4.17;;;5.30;72.50;;;;;;5093207;28;20427;-63
2021/03/21 04:08:28;;;;;;;6.13;5.13;;;5.40;74.20;;;;;;5095015;28;20407;-63
2021/03/21 04:11:00;;;;;;;4.93;4.33;;;5.40;75.00;;;;;;5095658;28;20815;-62
2021/03/21 04:13:33;;;;;;;6.27;5.07;;;5.40;75.60;;;;;;5095334;28;20541;-62
2021/03/21 04:15:59;;;;;;;5.23;4.43;;;5.40;74.20;;;;;;5095760;28;20372;-63
2021/03/21 04:18:44;;;;;;;4.73;4.03;;;5.40;75.10;;;;;;5086575;28;20404;-63
2021/03/21 04:21:15;;;;;;;5.47;4.33;;;5.50;75.00;;;;;;5093614;28;20169;-63
2021/03/21 04:23:49;;;;;;;4.50;3.80;;;5.40;74.20;;;;;;5094410;28;20451;-64
2021/03/21 04:26:23;;;;;;;4.80;4.40;;;5.40;73.70;;;;;;5095233;28;20380;-63
2021/03/21 04:28:56;;;;;;;5.67;3.83;;;5.40;73.90;;;;;;5094461;28;20418;-64
2021/03/21 04:31:21;;;;;;;5.33;4.73;;;5.40;74.50;;;;;;5094650;28;20391;-63
2021/03/21 04:33:51;;;;;;;4.60;4.10;;;5.50;74.50;;;;;;5093936;28;20963;-64
2021/03/21 04:36:27;;;;;;;4.77;4.37;;;5.60;75.70;;;;;;5075736;28;20184;-63
2021/03/21 04:39:02;;;;;;;4.97;3.80;;;5.60;75.50;;;;;;5074044;28;20432;-64
2021/03/21 04:41:39;;;;;;;5.37;3.90;;;5.70;74.60;;;;;;5074413;28;20383;-64
2021/03/21 04:44:07;;;;;;;5.27;4.70;;;5.60;76.20;;;;;;5073782;28;20964;-64
2021/03/21 04:46:40;;;;;;;4.83;3.90;;;5.60;76.20;;;;;;5083212;28;20539;-64
2021/03/21 04:49:06;;;;;;;4.87;4.37;;;5.50;75.90;;;;;;5096021;28;20410;-65
2021/03/21 04:51:38;;;;;;;6.03;4.30;;;5.60;75.40;;;;;;5114466;28;20807;-63
2021/03/21 04:54:18;;;;;;;5.53;4.20;;;5.70;76.70;;;;;;5114429;28;20479;-64
2021/03/21 04:56:53;;;;;;;4.40;4.03;;;5.70;74.90;;;;;;5105492;28;20418;-65
2021/03/21 04:59:26;;;;;;;4.50;3.53;;;5.70;76.50;;;;;;5092538;28;20407;-63
2021/03/21 05:01:52;;;;;;;5.83;3.77;;;5.70;76.80;;;;;;5094461;28;20418;-64
2021/03/21 05:04:22;;;;;;;4.90;4.20;;;5.70;77.80;;;;;;5093647;28;20446;-64
2021/03/21 05:06:57;;;;;;;3.43;3.10;;;5.50;75.50;;;;;;5093804;28;20170;-64
2021/03/21 05:09:28;;;;;;;6.80;4.23;;;5.50;75.80;;;;;;5094086;28;20383;-64
2021/03/21 05:12:04;;;;;;;5.77;4.20;;;5.40;75.90;;;;;;5094123;28;20384;-64
2021/03/21 05:14:43;;;;;;;3.93;3.63;;;5.40;76.50;;;;;;5093956;28;20452;-64
2021/03/21 05:17:20;;;;;;;6.00;3.93;;;5.50;76.50;;;;;;5093349;28;20414;-63
2021/03/21 05:19:45;;;;;;;5.97;4.10;;;5.40;75.90;;;;;;5093670;28;20761;-64
2021/03/21 05:22:48;;;;;;;4.07;3.77;;;5.30;76.50;;;;;;5093611;28;20406;-64
2021/03/21 05:25:32;;;;;;;5.50;4.33;;;5.40;77.00;;;;;;5093991;28;20197;-63
2021/03/21 05:28:04;;;;;;;4.63;4.07;;;5.20;76.70;;;;;;5093668;28;20415;-64
2021/03/21 05:30:35;;;;;;;4.20;3.80;;;5.10;77.70;;;;;;5093693;28;20392;-64
2021/03/21 05:33:02;;;;;;;5.17;4.23;;;5.30;78.00;;;;;;5094270;28;20384;-63
2021/03/21 05:35:31;;;;;;;3.80;3.50;;;5.60;77.90;;;;;;5093225;28;20435;-65
2021/03/21 05:38:00;;;;;;;5.23;4.67;;;5.60;78.00;;;;;;5083095;28;20467;-64
2021/03/21 05:41:01;;;;;;;6.40;4.90;;;5.50;77.30;;;;;;5092387;28;20407;-64
2021/03/21 05:43:55;;;;;;;5.57;4.20;;;5.50;77.60;;;;;;5093534;28;20939;-64
2021/03/21 05:46:47;;;;;;;5.90;4.30;;;5.60;78.40;;;;;;5093792;28;20411;-64
2021/03/21 05:49:24;;;;;;;5.70;4.63;;;5.80;78.00;;;;;;5073026;28;20407;-64
2021/03/21 05:52:31;;;;;;;6.70;5.00;;;5.90;78.80;;;;;;5073313;28;20542;-64
2021/03/21 05:55:14;;;;;;;5.10;4.60;;;5.80;79.00;;;;;;5053993;28;20956;-64
2021/03/21 05:58:04;;;;;;;5.43;4.20;;;5.60;78.10;;;;;;5093061;28;20437;-63
2021/03/21 06:01:00;;;;;;;4.40;3.83;;;5.70;80.00;;;;;;5093256;28;20388;-64
2021/03/21 06:03:44;;;;;;;5.57;4.27;;;5.70;78.60;;;;;;5093375;28;21010;-63
2021/03/21 06:06:20;;;;;;;4.10;3.73;;;5.80;79.90;;;;;;5093055;28;20414;-64
2021/03/21 06:08:54;;;;;;;5.73;4.50;;;5.80;80.00;;;;;;5093383;28;20411;-64
2021/03/21 06:11:47;;;;;;;4.40;4.00;;;5.90;79.10;;;;;;5093168;28;20448;-64
2021/03/21 06:14:31;;;;;;;6.40;4.67;;;6.00;79.40;;;;;;5093147;28;20423;-64
2021/03/21 06:17:18;;;;;;;4.87;3.80;;;6.00;80.20;;;;;;5086171;28;20433;-62
2021/03/21 06:19:59;;;;;;;4.60;4.20;;;5.90;80.30;;;;;;5090286;28;20399;-65
2021/03/21 06:22:33;;;;;;;4.50;4.20;;;5.70;80.20;;;;;;5093008;28;20430;-65
2021/03/21 06:25:32;;;;;;;5.13;4.53;;;5.60;79.00;;;;;;5092569;28;21005;-65
2021/03/21 06:28:01;;;;;;;5.20;4.10;;;5.40;78.70;;;;;;5091815;28;20423;-65
2021/03/21 06:30:50;;;;;;;4.73;4.33;;;5.40;80.00;;;;;;5092920;28;20407;-64
2021/03/21 06:33:26;;;;;;;5.20;3.70;;;5.50;81.60;;;;;;5092804;28;20421;-65
2021/03/21 06:36:03;;;;;;;9.10;4.20;;;5.60;80.40;;;;;;5092690;28;20407;-64
2021/03/21 06:39:00;;;;;;;4.30;3.90;;;5.50;79.20;;;;;;5092603;28;20907;-64
2021/03/21 06:41:38;;;;;;;4.40;4.00;;;5.50;79.60;;;;;;5093027;28;20383;-65
2021/03/21 06:44:21;;;;;;;4.23;3.83;;;5.70;79.80;;;;;;5093162;28;20446;-64
2021/03/21 06:47:06;;;;;;;4.70;4.30;;;5.60;79.60;;;;;;5076619;28;20481;-64
2021/03/21 06:49:44;;;;;;;4.70;4.20;;;5.50;81.30;;;;;;5103609;28;20395;-63
2021/03/21 06:52:47;;;;;;;6.20;4.37;;;5.50;80.30;;;;;;5113164;28;20391;-64
2021/03/21 06:55:20;;;;;;;4.73;4.23;;;5.20;80.30;;;;;;5126097;28;20418;-64
2021/03/21 06:58:23;;;;;;;4.80;4.30;;;5.30;81.30;;;;;;5107193;28;20480;-63
2021/03/21 07:00:57;;;;;;;6.73;5.07;;;5.60;81.70;;;;;;5100134;28;20489;-63
2021/03/21 07:03:52;;;;;;;5.60;5.00;;;5.70;83.10;;;;;;5089440;28;20455;-65
2021/03/21 07:06:32;;;;;;;4.73;4.33;;;5.60;83.20;;;;;;5082899;28;20408;-64
2021/03/21 07:09:07;;;;;;;5.20;4.70;;;5.50;81.40;;;;;;5095999;28;20387;-65
2021/03/21 07:12:02;;;;;;;4.83;4.33;;;5.50;80.90;;;;;;5096522;28;20411;-65
2021/03/21 07:14:33;;;;;;;5.40;4.90;;;5.60;82.70;;;;;;5096287;28;20451;-64
2021/03/21 07:17:17;;;;;;;4.13;3.83;;;5.70;82.70;;;;;;5095808;28;20453;-65
2021/03/21 07:20:06;;;;;;;5.10;4.50;;;5.90;81.40;;;;;;5077707;28;20502;-65
2021/03/21 07:22:53;;;;;;;6.67;6.00;;;6.00;82.60;;;;;;5035634;28;20428;-65
2021/03/21 07:25:50;;;;;;;5.20;4.37;;;5.90;82.00;;;;;;5057349;28;20460;-65
2021/03/21 07:28:25;;;;;;;5.40;4.83;;;6.00;83.10;;;;;;5075842;28;20802;-65
2021/03/21 07:31:08;;;;;;;5.60;4.47;;;6.00;82.10;;;;;;5076367;28;20857;-66
2021/03/21 07:33:55;;;;;;;6.00;5.40;;;6.10;84.00;;;;;;5075244;28;20847;-66
2021/03/21 07:36:37;;;;;;;8.17;7.30;;;5.90;82.20;;;;;;5082810;28;20772;-67
2021/03/21 07:39:19;;;;;;;5.40;4.90;;;6.10;82.00;;;;;;5091436;28;20407;-64
2021/03/21 07:41:50;;;;;;;6.73;6.03;;;6.20;81.90;;;;;;5095654;28;20383;-66
2021/03/21 07:44:37;;;;;;;7.37;6.60;;;6.30;80.90;;;;;;5093855;28;20990;-66
2021/03/21 07:47:32;;;;;;;5.87;5.00;;;6.30;80.30;;;;;;5094746;28;20411;-66
2021/03/21 07:50:23;;;;;;;7.13;4.70;;;6.20;81.10;;;;;;5094185;28;20411;-66
2021/03/21 07:53:00;;;;;;;5.37;3.80;;;6.20;82.30;;;;;;5095206;28;20441;-67
2021/03/21 07:55:49;;;;;;;7.97;6.23;;;6.20;82.50;;;;;;5089728;28;20416;-66
2021/03/21 07:58:45;;;;;;;5.27;4.70;;;6.20;80.80;;;;;;5074549;28;20404;-66
2021/03/21 08:01:10;;;;;;;4.93;4.43;;;6.10;81.60;;;;;;5073619;28;20400;-65
2021/03/21 08:03:52;;;;;;;5.17;4.67;;;6.30;83.30;;;;;;5074285;28;20959;-65
2021/03/21 08:06:43;;;;;;;4.50;4.10;;;6.50;82.70;;;;;;5075097;28;20166;-62
2021/03/21 08:09:21;;;;;;;6.35;4.95;;;6.50;82.10;;;;;;5073270;28;20402;-65
2021/03/21 08:11:54;;;;;;;5.55;5.05;;;6.60;82.10;;;;;;5073409;28;20406;-65
2021/03/21 08:14:44;;;;;;;5.82;5.32;;;6.60;80.30;;;;;;5093024;28;20400;-64
2021/03/21 08:17:28;;;;;;;6.38;5.72;;;6.70;81.00;;;;;;5086905;28;20404;-64
2021/03/21 08:19:59;;;;;;;5.25;4.35;;;6.60;80.10;;;;;;5092687;28;20743;-62
2021/03/21 08:22:28;;;;;;;4.23;3.83;;;6.70;80.00;;;;;;5095047;28;20544;-62
2021/03/21 08:24:58;;;;;;;5.90;4.40;;;6.60;81.10;;;;;;5094228;28;20458;-62
2021/03/21 08:27:27;;;;;;;4.77;4.27;;;6.60;80.60;;;;;;5095036;28;20434;-63
2021/03/21 08:29:56;;;;;;;6.93;4.47;;;6.40;81.00;;;;;;5094638;28;20395;-63
2021/03/21 08:32:22;;;;;;;4.70;3.77;;;6.20;81.20;;;;;;5094843;28;20453;-63
2021/03/21 08:34:49;;;;;;;4.93;3.97;;;6.40;82.80;;;;;;5094352;28;20850;-64
2021/03/21 08:37:21;;;;;;;5.10;4.60;;;6.50;81.50;;;;;;5093847;28;20167;-64
2021/03/21 08:40:11;;;;;;;3.80;3.50;;;6.80;83.00;;;;;;5091099;28;20772;-63
2021/03/21 08:42:40;;;;;;;6.00;3.97;;;7.00;82.30;;;;;;5064432;28;20425;-63
2021/03/21 08:45:50;;;;;;;5.23;3.97;;;6.70;80.70;;;;;;5093798;28;20595;-63
2021/03/21 08:48:25;;;;;;;4.53;4.13;;;6.30;81.50;;;;;;5060338;28;20504;-63
2021/03/21 08:50:53;;;;;;;5.20;4.47;;;6.50;83.00;;;;;;5094469;28;20406;-63
2021/03/21 08:53:26;;;;;;;10.93;7.37;;;6.60;83.00;;;;;;5096614;28;20404;-61
2021/03/21 08:56:16;;;;;;;8.57;6.00;;;6.50;81.60;;;;;;5094393;28;20478;-63
2021/03/21 08:58:43;;;;;;;4.73;4.23;;;6.60;83.30;;;;;;5093658;28;20396;-63
2021/03/21 09:01:24;;;;;;;7.20;6.50;;;6.90;81.90;;;;;;5094194;28;20392;-63
2021/03/21 09:03:51;;;;;;;5.30;4.80;;;6.70;80.80;;;;;;5094200;28;20537;-63
2021/03/21 09:06:31;;;;;;;6.57;5.77;;;6.50;80.60;;;;;;5094359;28;20775;-64
2021/03/21 09:09:16;;;;;;;8.37;7.50;;;6.60;84.00;;;;;;5093872;28;20487;-64
2021/03/21 09:11:45;;;;;;;4.00;3.57;;;6.60;81.30;;;;;;5092163;28;20415;-62
2021/03/21 09:14:29;;;;;;;5.90;4.50;;;6.70;81.90;;;;;;5093105;28;20519;-63
2021/03/21 09:16:57;;;;;;;7.20;6.20;;;6.70;83.50;;;;;;5088940;28;20422;-63
2021/03/21 09:19:31;;;;;;;6.10;4.57;;;6.70;82.20;;;;;;5084224;28;20767;-64
2021/03/21 09:21:57;;;;;;;6.20;4.93;;;6.60;81.40;;;;;;5093395;28;20419;-63
2021/03/21 09:24:34;;;;;;;7.83;7.13;;;6.80;82.70;;;;;;5093279;28;20551;-64
2021/03/21 09:27:21;;;;;;;7.23;6.00;;;6.60;81.70;;;;;;5093467;28;20884;-64
2021/03/21 09:29:49;;;;;;;6.97;5.70;;;6.70;82.70;;;;;;5093290;28;20395;-62
2021/03/21 09:32:32;;;;;;;5.13;4.63;;;6.60;82.70;;;;;;5093490;28;20409;-63
2021/03/21 09:35:16;;;;;;;5.63;4.97;;;6.60;82.30;;;;;;5136369;22;20486;-63
2021/03/21 09:37:42;;;;;;;8.87;5.13;;;6.60;83.60;;;;;;5106549;28;20482;-63
2021/03/21 09:40:24;;;;;;;4.90;4.40;;;6.30;83.10;;;;;;5093808;28;20422;-63
2021/03/21 09:42:51;;;;;;;5.47;4.97;;;6.60;83.30;;;;;;5089626;28;20169;-63
2021/03/21 09:45:17;;;;;;;6.07;4.40;;;6.50;83.20;;;;;;5092514;28;20455;-63
2021/03/21 09:48:04;;;;;;;13.23;9.27;;;6.40;83.90;;;;;;5087650;28;20419;-63
2021/03/21 09:50:55;;;;;;;6.10;4.93;;;6.40;83.60;;;;;;5072334;28;20166;-63
2021/03/21 09:53:36;;;;;;;6.30;5.27;;;6.50;83.80;;;;;;5073029;28;20523;-63
2021/03/21 09:56:22;;;;;;;6.07;4.83;;;6.70;84.30;;;;;;5072838;28;20940;-63
2021/03/21 09:59:22;;;;;;;5.83;5.07;;;6.80;84.40;;;;;;5072168;28;20412;-64
2021/03/21 10:01:57;;;;;;;6.10;5.50;;;7.10;84.30;;;;;;5053177;28;20381;-63
2021/03/21 10:04:29;;;;;;;5.53;4.83;;;7.30;84.60;;;;;;5052495;28;20535;-63
2021/03/21 10:07:00;;;;;;;7.37;4.90;;;7.40;84.20;;;;;;5092647;28;20928;-63
2021/03/21 10:09:29;;;;;;;6.03;5.40;;;7.60;84.10;;;;;;5093076;28;20391;-63
2021/03/21 10:12:04;;;;;;;6.30;5.20;;;7.40;82.70;;;;;;5092672;28;20892;-64
2021/03/21 10:14:30;;;;;;;6.77;6.17;;;7.50;83.80;;;;;;5093107;28;20423;-63
2021/03/21 10:17:01;;;;;;;8.50;6.30;;;7.60;83.70;;;;;;5074785;28;20433;-63
2021/03/21 10:19:41;;;;;;;8.47;6.47;;;7.90;85.10;;;;;;5092988;28;20157;-64
2021/03/21 10:22:34;;;;;;;9.27;7.93;;;7.90;86.10;;;;;;5092876;28;20432;-63
2021/03/21 10:25:21;;;;;;;7.90;7.10;;;8.20;83.90;;;;;;5062477;28;20462;-63
2021/03/21 10:27:51;;;;;;;6.43;5.60;;;7.90;86.00;;;;;;5094851;28;20419;-63
2021/03/21 10:30:25;;;;;;;6.27;5.63;;;7.90;87.80;;;;;;5096677;28;20480;-63
2021/03/21 10:33:00;;;;;;;6.53;5.93;;;7.70;89.00;;;;;;5096589;28;20449;-63
2021/03/21 10:35:26;;;;;;;6.67;5.80;;;7.70;90.10;;;;;;5096115;28;20864;-63
2021/03/21 10:38:31;;;;;;;18.20;14.17;;;7.70;90.10;;;;;;5079858;28;20551;-63
2021/03/21 10:40:56;;;;;;;6.67;5.97;;;7.70;90.80;;;;;;5075993;28;20437;-63
2021/03/21 10:43:22;;;;;;;6.63;5.97;;;7.50;90.90;;;;;;5076160;28;20404;-63
2021/03/21 10:45:54;;;;;;;7.80;6.67;;;7.60;91.80;;;;;;5076474;28;20186;-64
2021/03/21 10:48:19;;;;;;;7.30;6.23;;;7.40;92.10;;;;;;5076468;28;20154;-63
2021/03/21 10:51:05;;;;;;;6.57;5.83;;;7.40;93.20;;;;;;5075819;28;20476;-63
2021/03/21 10:53:38;;;;;;;7.90;6.10;;;7.00;95.40;;;;;;5075916;28;20174;-63
2021/03/21 10:56:05;;;;;;;9.03;6.03;;;6.80;98.30;;;;;;5075929;28;20466;-63
2021/03/21 10:58:34;;;;;;;7.73;6.93;;;6.90;99.90;;;;;;5075577;28;20400;-63
2021/03/21 11:01:21;;;;;;;6.63;6.03;;;7.10;99.90;;;;;;5076674;28;20469;-64
2021/03/21 11:03:57;;;;;;;8.13;7.43;;;7.00;99.90;;;;;;5096126;28;20835;-63
2021/03/21 11:06:28;;;;;;;9.93;7.80;;;7.10;99.90;;;;;;5095695;28;20395;-63
2021/03/21 11:08:54;;;;;;;8.43;7.37;;;7.00;99.90;;;;;;5096288;28;20433;-63
2021/03/21 11:11:35;;;;;;;9.70;7.63;;;7.00;99.90;;;;;;5096238;28;20399;-63
2021/03/21 11:14:28;;;;;;;8.50;7.50;;;7.10;99.90;;;;;;5096274;28;20238;-63
2021/03/21 11:17:25;;;;;;;10.37;8.13;;;7.00;99.90;;;;;;5096312;28;20376;-63
2021/03/21 11:19:57;;;;;;;8.00;7.20;;;7.30;99.90;;;;;;5095663;28;20443;-63
2021/03/21 11:22:30;;;;;;;8.70;7.80;;;7.70;99.90;;;;;;5095790;28;20407;-63
2021/03/21 11:24:56;;;;;;;12.23;9.63;;;7.80;99.90;;;;;;5095874;28;20454;-63
2021/03/21 11:27:32;;;;;;;9.23;8.33;;;7.60;99.70;;;;;;5086871;28;20574;-63
2021/03/21 11:30:19;;;;;;;9.07;8.20;;;7.50;99.50;;;;;;5091313;28;20403;-63
2021/03/21 11:32:44;;;;;;;10.30;7.90;;;7.70;99.50;;;;;;5084420;28;20461;-63
2021/03/21 11:35:29;;;;;;;9.30;8.33;;;7.80;99.30;;;;;;5087307;28;20456;-63
2021/03/21 11:37:57;;;;;;;8.80;7.90;;;7.70;98.60;;;;;;5075568;28;20487;-63
2021/03/21 11:40:35;;;;;;;8.37;7.27;;;7.80;98.40;;;;;;5075326;28;20416;-63
2021/03/21 11:43:19;;;;;;;18.90;16.80;;;7.70;97.90;;;;;;5075293;28;20407;-63
2021/03/21 11:45:46;;;;;;;11.47;8.77;;;7.90;97.90;;;;;;5074933;28;20429;-63
2021/03/21 11:48:25;;;;;;;8.90;8.00;;;7.90;97.70;;;;;;5075022;28;20412;-64
2021/03/21 11:50:55;;;;;;;8.98;8.07;;;8.20;97.80;;;;;;5074211;28;20441;-63
2021/03/21 11:53:27;;;;;;;7.90;7.10;;;8.20;96.70;;;;;;5074772;28;20178;-63
2021/03/21 11:55:56;;;;;;;9.35;8.15;;;8.20;96.70;;;;;;5074274;28;20460;-63
2021/03/21 11:58:43;;;;;;;9.07;7.80;;;8.00;96.50;;;;;;5075044;28;20181;-63
2021/03/21 12:01:13;;;;;;;8.83;7.33;;;8.00;96.30;;;;;;5076907;28;20415;-63
2021/03/21 12:04:01;;;;;;;9.63;7.17;;;7.90;96.60;;;;;;5083469;28;20454;-64
2021/03/21 12:06:46;;;;;;;8.37;6.57;;;8.00;96.60;;;;;;5089863;28;20444;-65
2021/03/21 12:09:35;;;;;;;9.40;7.57;;;8.10;96.50;;;;;;5082765;28;20975;-63
2021/03/21 12:12:29;;;;;;;7.93;7.07;;;8.30;96.40;;;;;;5094924;28;20399;-63
2021/03/21 12:14:56;;;;;;;7.83;7.10;;;8.50;96.20;;;;;;5094841;28;20789;-64
2021/03/21 12:17:24;;;;;;;6.67;6.07;;;8.60;96.20;;;;;;5094923;28;20803;-63
2021/03/21 12:19:52;;;;;;;7.10;6.00;;;8.50;96.50;;;;;;5094575;28;20411;-63
2021/03/21 12:22:23;;;;;;;5.20;4.60;;;8.30;97.40;;;;;;5094647;28;20761;-63
2021/03/21 12:24:55;;;;;;;6.37;5.47;;;8.20;98.00;;;;;;5094645;28;20548;-63
2021/03/21 12:27:31;;;;;;;5.50;5.00;;;8.20;98.70;;;;;;5092734;28;20405;-63
2021/03/21 12:30:28;;;;;;;5.80;5.20;;;8.20;98.80;;;;;;5094203;28;20402;-63
2021/03/21 12:33:14;;;;;;;5.37;4.87;;;8.00;99.50;;;;;;5093938;28;20395;-63
2021/03/21 12:35:41;;;;;;;5.90;4.73;;;8.20;99.90;;;;;;5092754;28;21038;-63
2021/03/21 12:38:33;;;;;;;5.70;4.27;;;8.30;99.90;;;;;;5094059;28;20404;-63
2021/03/21 12:41:34;;;;;;;5.37;4.87;;;8.60;99.90;;;;;;5079759;28;20408;-63
2021/03/21 12:44:35;;;;;;;6.67;6.07;;;8.60;99.90;;;;;;5092471;28;20545;-63
2021/03/21 12:47:05;;;;;;;5.10;4.60;;;8.60;99.90;;;;;;5012243;28;20434;-63
2021/03/21 12:49:42;;;;;;;5.27;4.77;;;8.40;99.90;;;;;;5078658;28;20514;-63
2021/03/21 12:52:36;;;;;;;4.50;4.10;;;8.30;99.90;;;;;;5094274;28;20388;-63
2021/03/21 12:55:03;;;;;;;6.03;5.40;;;8.40;99.90;;;;;;5092319;28;20444;-63
2021/03/21 12:57:28;;;;;;;5.00;4.50;;;8.60;99.90;;;;;;5094130;28;20411;-63
2021/03/21 12:59:54;;;;;;;4.47;4.07;;;8.80;99.90;;;;;;5093718;28;20762;-63
2021/03/21 13:02:33;;;;;;;5.50;4.50;;;8.70;99.90;;;;;;5093927;28;20229;-63
2021/03/21 13:05:01;;;;;;;6.60;5.23;;;8.90;99.90;;;;;;5093608;28;20196;-63
2021/03/21 13:07:27;;;;;;;4.13;3.73;;;9.00;99.90;;;;;;5086945;28;20995;-63
2021/03/21 13:09:54;;;;;;;4.53;3.87;;;8.90;99.90;;;;;;5091858;28;20441;-63
2021/03/21 13:12:21;;;;;;;5.00;4.47;;;8.90;99.90;;;;;;5093894;28;20455;-63
2021/03/21 13:14:48;;;;;;;6.73;5.93;;;8.80;99.90;;;;;;5093249;28;20425;-63
2021/03/21 13:17:15;;;;;;;5.87;4.30;;;8.70;99.90;;;;;;5075518;28;20405;-63
2021/03/21 13:19:40;;;;;;;5.63;5.10;;;8.80;99.90;;;;;;5093607;28;20440;-63
2021/03/21 13:22:07;;;;;;;6.30;5.70;;;8.70;99.90;;;;;;5093412;28;20407;-63
2021/03/21 13:24:34;;;;;;;5.23;4.70;;;8.60;99.90;;;;;;5093011;28;20195;-63
2021/03/21 13:27:00;;;;;;;5.37;4.90;;;8.50;99.90;;;;;;5093520;28;20396;-63
2021/03/21 13:29:26;;;;;;;5.53;5.03;;;8.60;99.90;;;;;;5093197;28;20393;-63
2021/03/21 13:31:52;;;;;;;5.27;4.77;;;8.70;99.90;;;;;;5087839;28;20417;-63
2021/03/21 13:34:18;;;;;;;5.27;4.77;;;8.70;99.90;;;;;;5078634;28;20564;-63
2021/03/21 13:36:43;;;;;;;6.40;5.80;;;8.30;99.90;;;;;;5085887;28;20194;-63
2021/03/21 13:39:09;;;;;;;5.10;4.50;;;8.20;99.90;;;;;;5079874;28;20227;-63
2021/03/21 13:41:37;;;;;;;7.13;5.83;;;8.40;99.90;;;;;;5073716;28;20173;-63
2021/03/21 13:44:04;;;;;;;6.00;5.43;;;8.60;99.90;;;;;;5072882;28;20455;-64
2021/03/21 13:46:30;;;;;;;5.97;5.40;;;8.60;99.90;;;;;;5073857;28;20393;-63